sensor_id;sensor_type;location;lat;lon;timestamp;P1;P2;P0
56495;PMS5003;42804;55.762;38.084;2023-02-04T00:00:19;26.50;20.00;11.00
56495;PMS5003;42804;55.762;38.084;2023-02-04T00:02:48;24.00;21.00;11.75
56495;PMS5003;42804;55.762;38.084;2023-02-04T00:05:16;22.25;16.00;6.75
56495;PMS5003;42804;55.762;38.084;2023-02-04T00:07:44;32.50;24.50;15.00
56495;PMS5003;42804;55.762;38.084;2023-02-04T00:10:13;43.50;27.25;12.75
56495;PMS5003;42804;55.762;38.084;2023-02-04T00:12:41;30.50;22.50;12.75
56495;PMS5003;42804;55.762;38.084;2023-02-04T00:15:11;33.25;31.00;18.00
56495;PMS5003;42804;55.762;38.084;2023-02-04T00:17:39;27.60;21.20;3.00
56495;PMS5003;42804;55.762;38.084;2023-02-04T00:20:07;39.50;30.00;15.00
56495;PMS5003;42804;55.762;38.084;2023-02-04T00:22:35;35.75;27.25;16.00
56495;PMS5003;42804;55.762;38.084;2023-02-04T00:25:04;40.00;31.75;18.00
56495;PMS5003;42804;55.762;38.084;2023-02-04T00:27:32;27.50;23.50;9.00
56495;PMS5003;42804;55.762;38.084;2023-02-04T00:30:00;44.50;30.75;18.25
56495;PMS5003;42804;55.762;38.084;2023-02-04T00:32:30;33.20;26.60;13.60
56495;PMS5003;42804;55.762;38.084;2023-02-04T00:34:59;40.20;28.00;18.60
56495;PMS5003;42804;55.762;38.084;2023-02-04T00:37:30;35.80;30.20;16.00
56495;PMS5003;42804;55.762;38.084;2023-02-04T00:39:58;34.00;28.00;15.50
56495;PMS5003;42804;55.762;38.084;2023-02-04T00:42:28;37.60;28.00;15.00
56495;PMS5003;42804;55.762;38.084;2023-02-04T00:44:57;33.25;26.50;16.00
56495;PMS5003;42804;55.762;38.084;2023-02-04T00:47:25;31.50;27.50;16.50
56495;PMS5003;42804;55.762;38.084;2023-02-04T00:49:56;41.00;33.25;17.50
56495;PMS5003;42804;55.762;38.084;2023-02-04T00:52:24;37.25;26.25;16.50
56495;PMS5003;42804;55.762;38.084;2023-02-04T00:54:52;33.00;22.75;12.50
56495;PMS5003;42804;55.762;38.084;2023-02-04T00:57:20;31.75;24.25;12.25
56495;PMS5003;42804;55.762;38.084;2023-02-04T00:59:49;30.25;29.50;15.75
56495;PMS5003;42804;55.762;38.084;2023-02-04T01:02:17;34.25;27.25;16.00
56495;PMS5003;42804;55.762;38.084;2023-02-04T01:04:45;27.50;24.50;13.75
56495;PMS5003;42804;55.762;38.084;2023-02-04T01:07:17;29.75;24.50;12.00
56495;PMS5003;42804;55.762;38.084;2023-02-04T01:09:45;31.25;27.25;18.00
56495;PMS5003;42804;55.762;38.084;2023-02-04T01:12:14;36.50;33.00;18.00
56495;PMS5003;42804;55.762;38.084;2023-02-04T01:14:42;36.40;28.80;16.80
56495;PMS5003;42804;55.762;38.084;2023-02-04T01:17:10;34.75;30.75;16.50
56495;PMS5003;42804;55.762;38.084;2023-02-04T01:19:38;49.60;38.20;22.00
56495;PMS5003;42804;55.762;38.084;2023-02-04T01:22:06;36.00;29.00;16.25
56495;PMS5003;42804;55.762;38.084;2023-02-04T01:24:36;42.50;33.75;16.50
56495;PMS5003;42804;55.762;38.084;2023-02-04T01:27:22;40.00;30.00;18.00
56495;PMS5003;42804;55.762;38.084;2023-02-04T01:29:51;33.00;27.20;15.20
56495;PMS5003;42804;55.762;38.084;2023-02-04T01:32:19;43.00;33.40;16.00
56495;PMS5003;42804;55.762;38.084;2023-02-04T01:34:47;34.00;28.75;14.50
56495;PMS5003;42804;55.762;38.084;2023-02-04T01:37:16;33.00;29.75;14.00
56495;PMS5003;42804;55.762;38.084;2023-02-04T01:39:46;11.20;3.00;0.00
56495;PMS5003;42804;55.762;38.084;2023-02-04T01:42:14;36.80;28.80;14.60
56495;PMS5003;42804;55.762;38.084;2023-02-04T01:44:42;31.40;26.60;13.40
56495;PMS5003;42804;55.762;38.084;2023-02-04T01:47:10;34.00;28.40;15.20
56495;PMS5003;42804;55.762;38.084;2023-02-04T01:49:38;27.60;20.60;9.60
56495;PMS5003;42804;55.762;38.084;2023-02-04T01:52:08;27.00;24.00;14.20
56495;PMS5003;42804;55.762;38.084;2023-02-04T01:54:36;34.00;23.20;12.80
56495;PMS5003;42804;55.762;38.084;2023-02-04T01:57:08;35.60;28.40;15.00
56495;PMS5003;42804;55.762;38.084;2023-02-04T01:59:37;27.00;21.40;12.40
56495;PMS5003;42804;55.762;38.084;2023-02-04T02:04:57;29.20;24.60;13.00
56495;PMS5003;42804;55.762;38.084;2023-02-04T02:07:25;34.80;25.80;13.00
56495;PMS5003;42804;55.762;38.084;2023-02-04T02:09:53;29.40;24.40;13.00
56495;PMS5003;42804;55.762;38.084;2023-02-04T02:12:23;32.20;25.80;13.40
56495;PMS5003;42804;55.762;38.084;2023-02-04T02:14:51;37.60;28.40;16.00
56495;PMS5003;42804;55.762;38.084;2023-02-04T02:17:19;30.40;26.60;18.00
56495;PMS5003;42804;55.762;38.084;2023-02-04T02:19:48;27.00;22.20;13.00
56495;PMS5003;42804;55.762;38.084;2023-02-04T02:22:19;36.80;29.20;18.60
56495;PMS5003;42804;55.762;38.084;2023-02-04T02:24:50;32.20;25.00;16.40
56495;PMS5003;42804;55.762;38.084;2023-02-04T02:27:18;29.60;27.00;17.60
56495;PMS5003;42804;55.762;38.084;2023-02-04T02:29:46;27.40;22.00;16.20
56495;PMS5003;42804;55.762;38.084;2023-02-04T02:32:15;36.80;28.80;18.00
56495;PMS5003;42804;55.762;38.084;2023-02-04T02:34:43;42.40;34.80;19.00
56495;PMS5003;42804;55.762;38.084;2023-02-04T02:37:13;36.20;29.80;16.20
56495;PMS5003;42804;55.762;38.084;2023-02-04T02:39:43;39.20;26.20;15.40
56495;PMS5003;42804;55.762;38.084;2023-02-04T02:42:14;40.80;30.80;18.00
56495;PMS5003;42804;55.762;38.084;2023-02-04T02:44:43;48.80;36.00;22.00
56495;PMS5003;42804;55.762;38.084;2023-02-04T02:47:12;38.80;32.20;19.60
56495;PMS5003;42804;55.762;38.084;2023-02-04T02:49:42;40.80;34.40;18.60
56495;PMS5003;42804;55.762;38.084;2023-02-04T02:52:10;28.00;24.20;13.40
56495;PMS5003;42804;55.762;38.084;2023-02-04T02:54:39;42.00;35.40;19.00
56495;PMS5003;42804;55.762;38.084;2023-02-04T02:57:10;42.40;35.60;18.40
56495;PMS5003;42804;55.762;38.084;2023-02-04T02:59:41;39.20;36.80;22.00
56495;PMS5003;42804;55.762;38.084;2023-02-04T03:02:10;37.60;32.20;18.20
56495;PMS5003;42804;55.762;38.084;2023-02-04T03:04:40;48.00;29.60;19.00
56495;PMS5003;42804;55.762;38.084;2023-02-04T03:07:10;31.80;25.80;10.60
56495;PMS5003;42804;55.762;38.084;2023-02-04T03:09:40;40.40;27.80;15.40
56495;PMS5003;42804;55.762;38.084;2023-02-04T03:12:08;45.20;36.00;19.00
56495;PMS5003;42804;55.762;38.084;2023-02-04T03:14:36;39.25;24.25;14.00
56495;PMS5003;42804;55.762;38.084;2023-02-04T03:17:06;41.20;34.00;16.00
56495;PMS5003;42804;55.762;38.084;2023-02-04T03:19:36;56.60;45.20;27.20
56495;PMS5003;42804;55.762;38.084;2023-02-04T03:22:05;44.60;36.80;19.00
56495;PMS5003;42804;55.762;38.084;2023-02-04T03:24:33;48.20;39.00;22.00
56495;PMS5003;42804;55.762;38.084;2023-02-04T03:27:02;41.20;33.20;22.40
56495;PMS5003;42804;55.762;38.084;2023-02-04T03:29:32;41.60;35.80;18.40
56495;PMS5003;42804;55.762;38.084;2023-02-04T03:32:01;50.60;41.20;25.00
56495;PMS5003;42804;55.762;38.084;2023-02-04T03:34:33;54.00;45.20;24.60
56495;PMS5003;42804;55.762;38.084;2023-02-04T03:37:01;41.80;34.80;22.00
56495;PMS5003;42804;55.762;38.084;2023-02-04T03:39:29;36.40;34.80;19.40
56495;PMS5003;42804;55.762;38.084;2023-02-04T03:41:57;41.80;34.00;21.20
56495;PMS5003;42804;55.762;38.084;2023-02-04T03:44:26;49.20;37.80;23.20
56495;PMS5003;42804;55.762;38.084;2023-02-04T03:46:54;44.20;35.80;18.40
56495;PMS5003;42804;55.762;38.084;2023-02-04T03:49:22;40.80;37.00;21.00
56495;PMS5003;42804;55.762;38.084;2023-02-04T03:51:52;47.25;33.25;15.75
56495;PMS5003;42804;55.762;38.084;2023-02-04T03:54:21;45.20;28.80;18.80
56495;PMS5003;42804;55.762;38.084;2023-02-04T03:56:49;40.40;31.00;19.80
56495;PMS5003;42804;55.762;38.084;2023-02-04T03:59:17;24.80;16.80;12.40
56495;PMS5003;42804;55.762;38.084;2023-02-04T04:01:45;52.00;33.80;16.80
56495;PMS5003;42804;55.762;38.084;2023-02-04T04:04:13;43.40;31.80;19.80
56495;PMS5003;42804;55.762;38.084;2023-02-04T04:06:43;40.80;31.40;18.00
56495;PMS5003;42804;55.762;38.084;2023-02-04T04:09:12;55.20;39.40;19.00
56495;PMS5003;42804;55.762;38.084;2023-02-04T04:11:41;37.20;25.60;13.80
56495;PMS5003;42804;55.762;38.084;2023-02-04T04:14:09;46.00;35.00;20.20
56495;PMS5003;42804;55.762;38.084;2023-02-04T04:16:37;49.20;33.80;17.60
56495;PMS5003;42804;55.762;38.084;2023-02-04T04:19:06;39.40;34.40;18.20
56495;PMS5003;42804;55.762;38.084;2023-02-04T04:21:34;43.00;31.80;16.40
56495;PMS5003;42804;55.762;38.084;2023-02-04T04:24:02;61.20;45.40;22.00
56495;PMS5003;42804;55.762;38.084;2023-02-04T04:26:32;41.00;28.00;15.00
56495;PMS5003;42804;55.762;38.084;2023-02-04T04:29:00;46.80;36.00;17.40
56495;PMS5003;42804;55.762;38.084;2023-02-04T04:31:28;29.20;22.80;9.20
56495;PMS5003;42804;55.762;38.084;2023-02-04T04:33:57;24.60;14.00;2.20
56495;PMS5003;42804;55.762;38.084;2023-02-04T04:36:25;37.80;32.20;15.60
56495;PMS5003;42804;55.762;38.084;2023-02-04T04:38:53;39.00;29.00;15.75
56495;PMS5003;42804;55.762;38.084;2023-02-04T04:41:21;42.40;30.00;14.80
56495;PMS5003;42804;55.762;38.084;2023-02-04T04:43:50;40.20;32.00;16.60
56495;PMS5003;42804;55.762;38.084;2023-02-04T04:46:19;44.60;32.20;17.20
56495;PMS5003;42804;55.762;38.084;2023-02-04T04:48:47;38.60;30.40;19.00
56495;PMS5003;42804;55.762;38.084;2023-02-04T04:51:15;40.40;33.60;18.20
56495;PMS5003;42804;55.762;38.084;2023-02-04T04:53:43;38.80;27.20;13.80
56495;PMS5003;42804;55.762;38.084;2023-02-04T04:56:12;40.20;29.80;13.40
56495;PMS5003;42804;55.762;38.084;2023-02-04T04:58:40;52.20;31.20;12.60
56495;PMS5003;42804;55.762;38.084;2023-02-04T05:01:09;44.80;32.80;19.00
56495;PMS5003;42804;55.762;38.084;2023-02-04T05:03:38;37.00;33.20;18.20
56495;PMS5003;42804;55.762;38.084;2023-02-04T05:06:06;47.60;33.60;19.00
56495;PMS5003;42804;55.762;38.084;2023-02-04T05:08:36;45.40;37.20;17.00
56495;PMS5003;42804;55.762;38.084;2023-02-04T05:11:04;36.60;25.00;15.40
56495;PMS5003;42804;55.762;38.084;2023-02-04T05:13:33;32.00;24.50;10.00
56495;PMS5003;42804;55.762;38.084;2023-02-04T05:16:01;34.00;26.25;10.75
56495;PMS5003;42804;55.762;38.084;2023-02-04T05:18:31;30.75;23.75;12.50
56495;PMS5003;42804;55.762;38.084;2023-02-04T05:20:59;50.50;40.00;20.50
56495;PMS5003;42804;55.762;38.084;2023-02-04T05:23:27;46.00;35.00;17.50
56495;PMS5003;42804;55.762;38.084;2023-02-04T05:25:55;44.25;31.00;13.00
56495;PMS5003;42804;55.762;38.084;2023-02-04T05:28:23;36.60;28.20;15.40
56495;PMS5003;42804;55.762;38.084;2023-02-04T05:30:52;42.75;30.75;14.50
56495;PMS5003;42804;55.762;38.084;2023-02-04T05:33:20;40.50;31.00;14.50
56495;PMS5003;42804;55.762;38.084;2023-02-04T05:35:50;37.75;26.75;13.75
56495;PMS5003;42804;55.762;38.084;2023-02-04T05:38:18;39.00;33.25;16.00
56495;PMS5003;42804;55.762;38.084;2023-02-04T05:40:46;37.25;27.50;16.00
56495;PMS5003;42804;55.762;38.084;2023-02-04T05:43:14;30.25;23.50;10.00
56495;PMS5003;42804;55.762;38.084;2023-02-04T05:45:42;44.25;35.50;21.00
56495;PMS5003;42804;55.762;38.084;2023-02-04T05:48:10;40.75;34.50;20.00
56495;PMS5003;42804;55.762;38.084;2023-02-04T05:50:39;44.75;35.50;18.75
56495;PMS5003;42804;55.762;38.084;2023-02-04T05:53:08;41.75;25.50;12.50
56495;PMS5003;42804;55.762;38.084;2023-02-04T05:55:37;45.75;37.75;21.25
56495;PMS5003;42804;55.762;38.084;2023-02-04T05:58:05;50.75;36.75;19.00
56495;PMS5003;42804;55.762;38.084;2023-02-04T06:00:33;51.25;37.00;18.25
56495;PMS5003;42804;55.762;38.084;2023-02-04T06:03:02;39.75;31.00;16.00
56495;PMS5003;42804;55.762;38.084;2023-02-04T06:05:30;38.75;24.25;10.50
56495;PMS5003;42804;55.762;38.084;2023-02-04T06:07:59;42.00;30.00;15.00
56495;PMS5003;42804;55.762;38.084;2023-02-04T06:10:28;46.75;38.00;18.75
56495;PMS5003;42804;55.762;38.084;2023-02-04T06:12:57;37.00;29.25;15.75
56495;PMS5003;42804;55.762;38.084;2023-02-04T06:15:25;50.25;36.75;18.00
56495;PMS5003;42804;55.762;38.084;2023-02-04T06:17:53;40.25;32.75;16.00
56495;PMS5003;42804;55.762;38.084;2023-02-04T06:20:22;51.75;32.25;15.75
56495;PMS5003;42804;55.762;38.084;2023-02-04T06:22:50;48.50;38.00;19.00
56495;PMS5003;42804;55.762;38.084;2023-02-04T06:25:20;26.25;24.00;11.50
56495;PMS5003;42804;55.762;38.084;2023-02-04T06:27:49;40.25;38.00;18.00
56495;PMS5003;42804;55.762;38.084;2023-02-04T06:30:18;45.50;28.25;12.25
56495;PMS5003;42804;55.762;38.084;2023-02-04T06:32:46;43.25;30.75;17.50
56495;PMS5003;42804;55.762;38.084;2023-02-04T06:35:15;47.00;38.00;19.00
56495;PMS5003;42804;55.762;38.084;2023-02-04T06:37:43;53.25;39.75;21.00
56495;PMS5003;42804;55.762;38.084;2023-02-04T06:40:11;43.25;36.75;19.00
56495;PMS5003;42804;55.762;38.084;2023-02-04T06:42:40;49.00;36.50;24.00
56495;PMS5003;42804;55.762;38.084;2023-02-04T06:45:10;55.25;40.25;21.00
56495;PMS5003;42804;55.762;38.084;2023-02-04T06:47:38;49.00;42.00;19.50
56495;PMS5003;42804;55.762;38.084;2023-02-04T06:50:06;48.75;42.25;21.50
56495;PMS5003;42804;55.762;38.084;2023-02-04T06:52:35;34.60;28.80;14.20
56495;PMS5003;42804;55.762;38.084;2023-02-04T06:55:03;51.60;36.40;16.40
56495;PMS5003;42804;55.762;38.084;2023-02-04T06:57:31;52.40;39.40;21.20
56495;PMS5003;42804;55.762;38.084;2023-02-04T06:59:59;42.80;37.80;19.80
56495;PMS5003;42804;55.762;38.084;2023-02-04T07:02:29;48.00;29.00;18.80
56495;PMS5003;42804;55.762;38.084;2023-02-04T07:04:58;53.00;40.50;18.25
56495;PMS5003;42804;55.762;38.084;2023-02-04T07:07:28;50.80;35.40;19.40
56495;PMS5003;42804;55.762;38.084;2023-02-04T07:09:56;55.80;41.40;19.40
56495;PMS5003;42804;55.762;38.084;2023-02-04T07:12:24;49.80;32.60;17.60
56495;PMS5003;42804;55.762;38.084;2023-02-04T07:14:53;43.20;33.00;18.20
56495;PMS5003;42804;55.762;38.084;2023-02-04T07:17:21;49.60;32.60;19.80
56495;PMS5003;42804;55.762;38.084;2023-02-04T07:19:51;45.00;33.60;18.00
56495;PMS5003;42804;55.762;38.084;2023-02-04T07:22:19;42.80;34.20;17.60
56495;PMS5003;42804;55.762;38.084;2023-02-04T07:24:47;55.80;39.40;20.60
56495;PMS5003;42804;55.762;38.084;2023-02-04T07:27:15;42.60;31.80;18.40
56495;PMS5003;42804;55.762;38.084;2023-02-04T07:29:44;47.50;36.50;18.75
56495;PMS5003;42804;55.762;38.084;2023-02-04T07:32:12;44.80;33.20;20.60
56495;PMS5003;42804;55.762;38.084;2023-02-04T07:34:40;55.00;38.80;18.60
56495;PMS5003;42804;55.762;38.084;2023-02-04T07:37:10;39.80;27.60;18.00
56495;PMS5003;42804;55.762;38.084;2023-02-04T07:39:38;53.00;34.40;17.20
56495;PMS5003;42804;55.762;38.084;2023-02-04T07:42:06;55.00;43.40;24.80
56495;PMS5003;42804;55.762;38.084;2023-02-04T07:44:43;62.00;40.80;20.80
56495;PMS5003;42804;55.762;38.084;2023-02-04T07:47:11;45.20;36.80;19.40
56495;PMS5003;42804;55.762;38.084;2023-02-04T07:49:39;49.20;39.80;21.40
56495;PMS5003;42804;55.762;38.084;2023-02-04T07:52:07;49.40;37.80;21.20
56495;PMS5003;42804;55.762;38.084;2023-02-04T07:54:37;51.20;36.80;22.00
56495;PMS5003;42804;55.762;38.084;2023-02-04T07:57:05;49.20;38.20;20.00
56495;PMS5003;42804;55.762;38.084;2023-02-04T07:59:33;62.80;45.20;20.60
56495;PMS5003;42804;55.762;38.084;2023-02-04T08:02:01;26.00;20.00;2.80
56495;PMS5003;42804;55.762;38.084;2023-02-04T08:04:30;37.25;27.75;12.50
56495;PMS5003;42804;55.762;38.084;2023-02-04T08:06:58;53.00;37.25;20.50
56495;PMS5003;42804;55.762;38.084;2023-02-04T08:09:26;62.50;45.25;25.00
56495;PMS5003;42804;55.762;38.084;2023-02-04T08:11:55;61.20;46.00;27.40
56495;PMS5003;42804;55.762;38.084;2023-02-04T08:14:25;58.00;47.20;25.40
56495;PMS5003;42804;55.762;38.084;2023-02-04T08:16:53;57.50;40.75;20.00
56495;PMS5003;42804;55.762;38.084;2023-02-04T08:19:22;60.20;46.20;22.80
56495;PMS5003;42804;55.762;38.084;2023-02-04T08:21:50;61.80;43.80;25.60
56495;PMS5003;42804;55.762;38.084;2023-02-04T08:24:18;69.60;48.20;30.00
56495;PMS5003;42804;55.762;38.084;2023-02-04T08:26:46;59.00;45.40;24.80
56495;PMS5003;42804;55.762;38.084;2023-02-04T08:29:18;69.60;47.00;28.00
56495;PMS5003;42804;55.762;38.084;2023-02-04T08:31:46;53.00;39.20;18.60
56495;PMS5003;42804;55.762;38.084;2023-02-04T08:34:14;64.40;47.40;28.40
56495;PMS5003;42804;55.762;38.084;2023-02-04T08:36:42;63.60;43.40;26.40
56495;PMS5003;42804;55.762;38.084;2023-02-04T08:39:10;58.60;46.20;24.00
56495;PMS5003;42804;55.762;38.084;2023-02-04T08:41:39;67.00;49.80;28.80
56495;PMS5003;42804;55.762;38.084;2023-02-04T08:44:07;59.80;45.60;24.80
56495;PMS5003;42804;55.762;38.084;2023-02-04T08:46:37;62.00;45.60;26.80
56495;PMS5003;42804;55.762;38.084;2023-02-04T08:49:05;63.40;44.40;24.00
56495;PMS5003;42804;55.762;38.084;2023-02-04T08:51:33;67.20;45.00;27.60
56495;PMS5003;42804;55.762;38.084;2023-02-04T08:54:01;66.80;48.20;28.40
56495;PMS5003;42804;55.762;38.084;2023-02-04T08:56:30;54.25;44.25;24.75
56495;PMS5003;42804;55.762;38.084;2023-02-04T08:58:58;55.20;46.00;25.60
56495;PMS5003;42804;55.762;38.084;2023-02-04T09:01:26;57.20;45.60;25.00
56495;PMS5003;42804;55.762;38.084;2023-02-04T09:03:55;47.50;33.75;20.00
56495;PMS5003;42804;55.762;38.084;2023-02-04T09:06:23;47.80;35.60;23.40
56495;PMS5003;42804;55.762;38.084;2023-02-04T09:08:52;63.20;49.20;28.20
56495;PMS5003;42804;55.762;38.084;2023-02-04T09:11:20;51.20;35.40;15.00
56495;PMS5003;42804;55.762;38.084;2023-02-04T09:13:48;64.60;47.40;29.00
56495;PMS5003;42804;55.762;38.084;2023-02-04T09:16:16;56.00;42.00;21.40
56495;PMS5003;42804;55.762;38.084;2023-02-04T09:18:45;52.00;44.50;25.00
56495;PMS5003;42804;55.762;38.084;2023-02-04T09:21:14;58.40;43.00;23.00
56495;PMS5003;42804;55.762;38.084;2023-02-04T09:23:42;56.00;43.75;23.00
56495;PMS5003;42804;55.762;38.084;2023-02-04T09:26:12;55.20;43.60;24.80
56495;PMS5003;42804;55.762;38.084;2023-02-04T09:28:40;62.80;45.20;25.40
56495;PMS5003;42804;55.762;38.084;2023-02-04T09:31:08;64.60;42.60;23.80
56495;PMS5003;42804;55.762;38.084;2023-02-04T09:33:37;41.20;32.40;14.20
56495;PMS5003;42804;55.762;38.084;2023-02-04T09:36:06;57.80;44.40;24.80
56495;PMS5003;42804;55.762;38.084;2023-02-04T09:38:36;40.20;28.60;14.80
56495;PMS5003;42804;55.762;38.084;2023-02-04T09:41:05;46.40;36.40;16.20
56495;PMS5003;42804;55.762;38.084;2023-02-04T09:43:34;52.25;37.75;19.25
56495;PMS5003;42804;55.762;38.084;2023-02-04T09:46:03;37.20;32.20;21.60
56495;PMS5003;42804;55.762;38.084;2023-02-04T09:48:32;42.40;33.20;14.00
56495;PMS5003;42804;55.762;38.084;2023-02-04T09:51:02;64.20;45.60;22.20
56495;PMS5003;42804;55.762;38.084;2023-02-04T09:53:31;63.20;42.40;22.60
56495;PMS5003;42804;55.762;38.084;2023-02-04T09:56:01;59.00;45.20;23.20
56495;PMS5003;42804;55.762;38.084;2023-02-04T09:58:31;55.20;44.20;23.00
56495;PMS5003;42804;55.762;38.084;2023-02-04T10:01:00;47.75;38.25;22.50
56495;PMS5003;42804;55.762;38.084;2023-02-04T10:03:33;40.00;29.80;19.60
56495;PMS5003;42804;55.762;38.084;2023-02-04T10:06:02;47.75;33.00;19.25
56495;PMS5003;42804;55.762;38.084;2023-02-04T10:08:30;47.50;37.75;20.25
56495;PMS5003;42804;55.762;38.084;2023-02-04T10:11:01;39.25;24.75;15.25
56495;PMS5003;42804;55.762;38.084;2023-02-04T10:13:30;43.20;34.20;18.40
56495;PMS5003;42804;55.762;38.084;2023-02-04T10:15:59;52.40;40.60;22.20
56495;PMS5003;42804;55.762;38.084;2023-02-04T10:18:29;48.00;38.60;19.80
56495;PMS5003;42804;55.762;38.084;2023-02-04T10:21:00;42.80;38.80;20.40
56495;PMS5003;42804;55.762;38.084;2023-02-04T10:23:33;36.25;30.25;15.50
56495;PMS5003;42804;55.762;38.084;2023-02-04T10:26:03;12.75;10.75;10.00
56495;PMS5003;42804;55.762;38.084;2023-02-04T10:28:32;24.00;21.00;13.00
56495;PMS5003;42804;55.762;38.084;2023-02-04T10:31:00;11.75;11.75;7.00
56495;PMS5003;42804;55.762;38.084;2023-02-04T10:33:28;29.75;23.00;11.50
56495;PMS5003;42804;55.762;38.084;2023-02-04T10:35:57;28.00;20.75;10.75
56495;PMS5003;42804;55.762;38.084;2023-02-04T10:38:25;33.00;22.50;11.75
56495;PMS5003;42804;55.762;38.084;2023-02-04T10:41:00;31.75;24.50;12.25
56495;PMS5003;42804;55.762;38.084;2023-02-04T10:43:29;34.50;23.75;12.25
56495;PMS5003;42804;55.762;38.084;2023-02-04T10:45:58;28.50;21.50;14.00
56495;PMS5003;42804;55.762;38.084;2023-02-04T10:48:27;31.00;25.00;13.00
56495;PMS5003;42804;55.762;38.084;2023-02-04T10:50:56;26.50;21.25;14.00
56495;PMS5003;42804;55.762;38.084;2023-02-04T10:53:24;35.25;25.75;14.00
56495;PMS5003;42804;55.762;38.084;2023-02-04T10:56:13;34.00;24.25;14.00
56495;PMS5003;42804;55.762;38.084;2023-02-04T10:58:44;33.75;27.75;15.25
56495;PMS5003;42804;55.762;38.084;2023-02-04T11:01:13;25.00;18.00;3.75
56495;PMS5003;42804;55.762;38.084;2023-02-04T11:03:43;37.00;29.00;16.25
56495;PMS5003;42804;55.762;38.084;2023-02-04T11:06:16;19.25;17.00;9.50
56495;PMS5003;42804;55.762;38.084;2023-02-04T11:08:47;24.00;19.50;11.00
56495;PMS5003;42804;55.762;38.084;2023-02-04T11:11:17;18.25;13.00;6.00
56495;PMS5003;42804;55.762;38.084;2023-02-04T11:13:57;23.50;20.00;11.00
56495;PMS5003;42804;55.762;38.084;2023-02-04T11:16:26;30.75;23.50;12.50
56495;PMS5003;42804;55.762;38.084;2023-02-04T11:18:56;23.25;17.00;10.00
56495;PMS5003;42804;55.762;38.084;2023-02-04T11:21:25;22.50;16.25;8.00
56495;PMS5003;42804;55.762;38.084;2023-02-04T11:24:03;23.00;19.75;11.00
56495;PMS5003;42804;55.762;38.084;2023-02-04T11:26:32;25.50;21.75;12.50
56495;PMS5003;42804;55.762;38.084;2023-02-04T11:29:21;33.50;25.00;14.00
56495;PMS5003;42804;55.762;38.084;2023-02-04T11:31:55;34.00;27.00;15.50
56495;PMS5003;42804;55.762;38.084;2023-02-04T11:34:25;30.80;27.40;14.60
56495;PMS5003;42804;55.762;38.084;2023-02-04T11:36:55;34.20;29.40;16.00
56495;PMS5003;42804;55.762;38.084;2023-02-04T11:39:25;48.60;33.20;18.00
56495;PMS5003;42804;55.762;38.084;2023-02-04T11:41:55;43.80;36.80;21.00
56495;PMS5003;42804;55.762;38.084;2023-02-04T11:44:27;47.00;32.20;15.40
56495;PMS5003;42804;55.762;38.084;2023-02-04T11:46:55;49.00;36.00;19.40
56495;PMS5003;42804;55.762;38.084;2023-02-04T11:49:24;45.60;38.00;20.20
56495;PMS5003;42804;55.762;38.084;2023-02-04T11:52:01;41.60;30.00;16.40
56495;PMS5003;42804;55.762;38.084;2023-02-04T11:54:34;35.00;27.00;15.00
56495;PMS5003;42804;55.762;38.084;2023-02-04T11:57:03;45.75;30.25;17.50
56495;PMS5003;42804;55.762;38.084;2023-02-04T11:59:32;47.60;34.60;18.00
56495;PMS5003;42804;55.762;38.084;2023-02-04T12:02:04;43.00;39.00;22.20
56495;PMS5003;42804;55.762;38.084;2023-02-04T12:04:33;29.00;21.50;6.50
56495;PMS5003;42804;55.762;38.084;2023-02-04T12:07:01;36.00;27.00;14.00
56495;PMS5003;42804;55.762;38.084;2023-02-04T12:09:30;42.75;34.50;15.00
56495;PMS5003;42804;55.762;38.084;2023-02-04T12:11:59;41.00;27.75;14.75
56495;PMS5003;42804;55.762;38.084;2023-02-04T12:14:28;38.00;29.00;18.50
56495;PMS5003;42804;55.762;38.084;2023-02-04T12:16:59;28.00;25.00;12.60
56495;PMS5003;42804;55.762;38.084;2023-02-04T12:19:27;35.40;30.40;16.40
56495;PMS5003;42804;55.762;38.084;2023-02-04T12:21:56;41.50;31.50;16.00
56495;PMS5003;42804;55.762;38.084;2023-02-04T12:24:24;34.00;22.00;11.00
56495;PMS5003;42804;55.762;38.084;2023-02-04T12:26:52;37.00;24.50;9.50
56495;PMS5003;42804;55.762;38.084;2023-02-04T12:29:20;47.00;32.60;15.80
56495;PMS5003;42804;55.762;38.084;2023-02-04T12:31:48;41.00;30.50;13.50
56495;PMS5003;42804;55.762;38.084;2023-02-04T12:34:18;35.50;29.50;17.50
56495;PMS5003;42804;55.762;38.084;2023-02-04T12:36:47;44.25;30.00;16.50
56495;PMS5003;42804;55.762;38.084;2023-02-04T12:39:15;41.00;35.20;20.60
56495;PMS5003;42804;55.762;38.084;2023-02-04T12:41:43;43.75;33.50;17.50
56495;PMS5003;42804;55.762;38.084;2023-02-04T12:44:11;38.25;29.50;15.75
56495;PMS5003;42804;55.762;38.084;2023-02-04T12:46:40;30.00;24.75;15.00
56495;PMS5003;42804;55.762;38.084;2023-02-04T12:49:09;42.00;30.25;19.00
56495;PMS5003;42804;55.762;38.084;2023-02-04T12:51:38;29.00;24.50;13.00
56495;PMS5003;42804;55.762;38.084;2023-02-04T12:54:06;30.25;27.25;15.50
56495;PMS5003;42804;55.762;38.084;2023-02-04T12:56:35;33.50;30.25;15.75
56495;PMS5003;42804;55.762;38.084;2023-02-04T12:59:04;32.00;28.50;15.25
56495;PMS5003;42804;55.762;38.084;2023-02-04T13:01:32;36.00;18.00;4.50
56495;PMS5003;42804;55.762;38.084;2023-02-04T13:04:00;42.75;33.75;15.25
56495;PMS5003;42804;55.762;38.084;2023-02-04T13:06:30;49.50;36.50;18.00
56495;PMS5003;42804;55.762;38.084;2023-02-04T13:09:00;31.00;26.25;15.25
56495;PMS5003;42804;55.762;38.084;2023-02-04T13:11:28;43.25;30.75;15.75
56495;PMS5003;42804;55.762;38.084;2023-02-04T13:13:56;39.50;30.75;17.00
56495;PMS5003;42804;55.762;38.084;2023-02-04T13:16:24;36.75;28.00;15.25
56495;PMS5003;42804;55.762;38.084;2023-02-04T13:18:52;40.25;30.50;17.75
56495;PMS5003;42804;55.762;38.084;2023-02-04T13:21:20;39.25;28.25;16.00
56495;PMS5003;42804;55.762;38.084;2023-02-04T13:23:49;27.00;20.00;9.50
56495;PMS5003;42804;55.762;38.084;2023-02-04T13:26:18;46.25;28.75;15.75
56495;PMS5003;42804;55.762;38.084;2023-02-04T13:28:46;28.25;20.00;15.00
56495;PMS5003;42804;55.762;38.084;2023-02-04T13:31:15;25.00;18.75;14.50
56495;PMS5003;42804;55.762;38.084;2023-02-04T13:33:43;29.40;17.80;8.20
56495;PMS5003;42804;55.762;38.084;2023-02-04T13:36:11;34.50;26.00;15.75
56495;PMS5003;42804;55.762;38.084;2023-02-04T13:38:39;30.00;22.75;13.00
56495;PMS5003;42804;55.762;38.084;2023-02-04T13:41:07;37.00;23.50;10.50
56495;PMS5003;42804;55.762;38.084;2023-02-04T13:43:37;38.80;28.80;16.60
56495;PMS5003;42804;55.762;38.084;2023-02-04T13:46:06;33.75;28.00;16.75